Airfield :
LOGIN :

Register | Disclaimer

   EN    FR    IT 

 










Legend :    VFR   Marginal VFR   IFR   Intensive IFR   Very Intensive IFR
Visi :
Ceiling :
>= 8 km
>= 3000ft
5 to 8 km
1000 to 3000 ft
1500m to 5 km
500 to 1000 ft
800 to 1500m
200 to 500 ft
< 800m
< 200 ft
Symbols :   Thunderstorms  Fog  Heavy snow  Heavy precipitations  Wind > 20 kt
SIGMETs :     Misc.  Thunderstorms  Icing  Turbulence  Mountain Waves  Volcanic Ashes






- Airport Elevation : 529 ft
- IATA code : CHR


LFLX - Chateauroux

CURRENT METAR :
  • 190630Z AUTO 11008KT 080V140 9999 FEW005 BKN100 BKN130 17/16 Q1013 TEMPO 4000 SHRA SCT040CB

EXPIRED METARs :
  • 190600Z AUTO 12008KT 9999 FEW003/// BKN110/// OVC140/// ///CB 16/16 Q1013 TEMPO 4000 SHRA
  • 190530Z AUTO 11004KT 050V140 9000 -RA //////CB 16/16 Q1013 TEMPO 4000 SHRA
  • 190500Z AUTO 13005KT 9999 -RA FEW041/// OVC090/// //////CB 16/16 Q1013 BECMG NSC
  • 190430Z AUTO 16005KT 120V180 4900 RA BR FEW042/// OVC086/// //////CB 16/16 Q1013 BECMG CAVOK
  • 190400Z AUTO VRB03KT 9999 -RA ///CB 16/16 Q1012 BECMG NSC
  • 190330Z AUTO 08003KT CAVOK 16/16 Q1012 NOSIG
  • 190300Z AUTO 03004KT 320V050 9999 -RA FEW007/// OVC080/// ///TCU 16/16 Q1012 TEMPO 2000 TSRAGR BKN040CB
  • 190230Z AUTO 26003KT 230V290 6000 +RA FEW010/// OVC068/// //////CB 16/16 Q1014 TEMPO 2000 TSRAGR BECMG NSC
  • 190200Z AUTO VRB03KT 5000 -RA BR FEW049/// BKN060/// OVC086/// ///CB 17/16 Q1014 TEMPO 2000 TSRAGR

TAF TAF LFLX
Valid from the 19 at 06:00 until the 20 at 12:00 UTC


190500Z 1906/2012 13005KT 9999 FEW040 BKN090
TEMPO 1906/1908 4000 SHRA SCT040CB
TEMPO 1912/2001 3000 SHRA BKN040CB
PROB40
TEMPO 1915/2001 TSRAGS
TEMPO 2010/2012 3000 SHRA BKN020CB



MET'MAP, your aeronautical weather chart ! - Copyright ORBIFLY December 2007 - Disclaimer

ORBIFLY MET'MAP TEAM :

Programming & Development : Alexandra Zaïnal
Original concept : Baudouin d'Aumeries
Technical & hardware support : Manuel Goepfert
Assistance : Marc-Olivier Méhu




SOURCES & CREDITS :

   NOAA